Time;durP1;ratioP1;P1;durP2;ratioP2;P2;SDS_P1;SDS_P2;PMS_P1;PMS_P2;Temp;Humidity;BMP_temperature;BMP_pressure;BME280_temperature;BME280_humidity;BME280_pressure;Samples;Min_cycle;Max_cycle;Signal;HPM_P1;HPM_P2
2022/12/09 00:01:57;;;;;;;60.28;34.17;;;-1.70;99.90;;;;;;5037287;28;20445;-72
2022/12/09 00:04:26;;;;;;;50.90;31.13;;;-1.70;99.90;;;;;;5019944;28;20132;-72
2022/12/09 00:06:51;;;;;;;59.28;34.28;;;-1.70;99.90;;;;;;5037450;28;20143;-72
2022/12/09 00:09:17;;;;;;;59.63;33.88;;;-1.80;99.90;;;;;;5037484;28;20099;-72
2022/12/09 00:11:43;;;;;;;59.17;32.70;;;-1.80;99.90;;;;;;5037542;28;20064;-72
2022/12/09 00:14:10;;;;;;;51.92;32.42;;;-1.80;99.90;;;;;;5037204;28;20041;-73
2022/12/09 00:16:36;;;;;;;52.80;31.77;;;-1.80;99.90;;;;;;5019576;28;20037;-72
2022/12/09 00:19:02;;;;;;;60.97;33.75;;;-1.80;99.90;;;;;;5037203;28;20041;-72
2022/12/09 00:21:31;;;;;;;67.10;35.72;;;-1.80;99.90;;;;;;5019530;28;20048;-72
2022/12/09 00:23:59;;;;;;;63.67;34.92;;;-1.80;99.90;;;;;;5037158;28;20358;-72
2022/12/09 00:26:27;;;;;;;60.65;33.75;;;-1.60;99.90;;;;;;5003426;28;20049;-72
2022/12/09 00:28:55;;;;;;;56.67;32.20;;;-1.90;99.90;;;;;;5036956;28;20049;-73
2022/12/09 00:31:27;;;;;;;55.95;31.17;;;-1.90;99.90;;;;;;5018827;28;20454;-72
2022/12/09 00:33:56;;;;;;;53.30;31.92;;;-1.90;99.90;;;;;;5037007;28;20033;-73
2022/12/09 00:36:22;;;;;;;42.20;27.83;;;-1.90;99.90;;;;;;5037070;28;20045;-73
2022/12/09 00:38:56;;;;;;;50.83;29.75;;;-1.20;99.90;;;;;;5020320;28;20052;-73
2022/12/09 00:41:24;;;;;;;51.78;30.15;;;-1.90;99.90;;;;;;5036777;28;20398;-73
2022/12/09 00:43:50;;;;;;;46.80;28.05;;;-1.90;99.90;;;;;;5018720;28;20107;-72
2022/12/09 00:46:18;;;;;;;45.65;29.33;;;-1.90;99.90;;;;;;5036612;28;20045;-73
2022/12/09 00:48:45;;;;;;;47.35;29.50;;;-1.90;99.90;;;;;;5036781;28;20033;-73
2022/12/09 00:51:14;;;;;;;46.83;29.60;;;-1.90;99.90;;;;;;5019188;28;20037;-73
2022/12/09 00:53:40;;;;;;;48.08;29.35;;;-2.00;99.90;;;;;;5035565;28;20061;-72
2022/12/09 00:56:06;;;;;;;45.90;27.60;;;-2.00;99.90;;;;;;5036409;28;20045;-73
2022/12/09 00:58:31;;;;;;;49.75;29.75;;;-2.00;99.90;;;;;;5036898;28;20057;-73
2022/12/09 01:00:57;;;;;;;45.70;27.65;;;-2.00;99.90;;;;;;5036063;28;20446;-72
2022/12/09 01:03:23;;;;;;;52.13;30.90;;;-2.00;99.90;;;;;;5036656;28;20041;-72
2022/12/09 01:05:49;;;;;;;53.40;29.15;;;-2.00;99.90;;;;;;5018537;28;20431;-73
2022/12/09 01:08:15;;;;;;;45.53;28.15;;;-2.00;99.90;;;;;;5036327;28;20037;-72
2022/12/09 01:10:43;;;;;;;50.88;28.35;;;-2.00;99.90;;;;;;5036215;28;20041;-73
2022/12/09 01:13:09;;;;;;;46.75;27.42;;;-2.00;99.90;;;;;;5035799;28;20045;-72
2022/12/09 01:15:36;;;;;;;48.60;28.05;;;-2.00;99.90;;;;;;5018753;28;20144;-72
2022/12/09 01:18:01;;;;;;;47.92;28.40;;;-1.90;99.90;;;;;;5036198;28;20052;-72
2022/12/09 01:20:27;;;;;;;52.45;28.92;;;-1.90;99.90;;;;;;5018272;28;20120;-72
2022/12/09 01:22:53;;;;;;;54.33;27.63;;;-1.90;99.90;;;;;;5036177;28;20116;-72
2022/12/09 01:25:18;;;;;;;60.67;30.13;;;-1.80;99.90;;;;;;5018522;28;20054;-72
2022/12/09 01:27:44;;;;;;;52.55;28.42;;;-1.80;99.90;;;;;;5035900;28;20089;-72
2022/12/09 01:30:12;;;;;;;52.17;26.77;;;-1.80;99.90;;;;;;5036208;28;20076;-72
2022/12/09 01:32:38;;;;;;;56.17;27.85;;;-1.80;99.90;;;;;;5018433;28;20347;-72
2022/12/09 01:35:04;;;;;;;58.70;29.45;;;-1.80;99.90;;;;;;5036000;28;20408;-72
2022/12/09 01:37:35;;;;;;;50.05;27.20;;;-1.80;99.90;;;;;;5035754;28;20060;-72
2022/12/09 01:40:03;;;;;;;49.58;26.30;;;-1.80;99.90;;;;;;5035966;28;20068;-71
2022/12/09 01:42:29;;;;;;;56.97;29.02;;;-1.70;99.90;;;;;;5035944;28;20112;-71
2022/12/09 01:45:19;;;;;;;46.30;26.23;;;-1.70;99.90;;;;;;5035651;28;20128;-71
2022/12/09 01:47:52;;;;;;;48.75;26.55;;;-1.70;99.90;;;;;;5018306;28;20055;-72
2022/12/09 01:50:18;;;;;;;48.67;26.73;;;-1.60;99.90;;;;;;5035410;28;20041;-72
2022/12/09 01:52:48;;;;;;;55.97;29.25;;;-1.60;99.90;;;;;;5035406;28;20055;-72
2022/12/09 01:55:14;;;;;;;56.47;28.95;;;-1.60;99.90;;;;;;5035334;28;20045;-72
2022/12/09 01:57:40;;;;;;;61.10;29.55;;;-1.50;99.90;;;;;;5017778;28;20414;-72
2022/12/09 02:00:07;;;;;;;53.38;27.60;;;-1.50;99.90;;;;;;5035477;28;20120;-72
2022/12/09 02:02:35;;;;;;;50.72;27.00;;;-1.40;99.90;;;;;;5035506;28;20041;-72
2022/12/09 02:05:02;;;;;;;58.05;28.38;;;-1.40;99.90;;;;;;5034625;28;20084;-73
2022/12/09 02:07:28;;;;;;;47.17;27.50;;;-1.40;99.90;;;;;;5035196;28;20041;-71
2022/12/09 02:09:54;;;;;;;66.20;30.80;;;-1.30;99.90;;;;;;5035225;28;20458;-73
2022/12/09 02:12:30;;;;;;;63.20;29.35;;;-1.30;99.90;;;;;;5018546;28;20358;-72
2022/12/09 02:15:20;;;;;;;63.25;29.02;;;-1.20;99.90;;;;;;5035264;28;20068;-72
2022/12/09 02:18:20;;;;;;;54.72;27.85;;;-1.20;99.90;;;;;;5018181;28;20049;-72
2022/12/09 02:20:59;;;;;;;51.28;27.35;;;-1.20;99.90;;;;;;5008731;28;20081;-71
2022/12/09 02:23:43;;;;;;;44.42;24.65;;;-1.10;99.90;;;;;;5035110;28;20078;-71
2022/12/09 02:26:19;;;;;;;44.13;24.63;;;-1.20;99.90;;;;;;5034812;28;20060;-72
2022/12/09 02:29:04;;;;;;;48.33;26.65;;;-1.20;99.90;;;;;;5035153;28;20049;-73
2022/12/09 02:32:00;;;;;;;53.58;27.70;;;-1.20;99.90;;;;;;5035003;28;20123;-72
2022/12/09 02:34:29;;;;;;;55.35;27.15;;;-1.20;99.90;;;;;;5034595;28;20164;-72
2022/12/09 02:37:03;;;;;;;53.25;27.17;;;-1.20;99.90;;;;;;5034922;28;20055;-72
2022/12/09 02:39:35;;;;;;;;;;;-1.20;99.90;;;;;;5035394;28;20377;-72
2022/12/09 02:42:05;;;;;;;51.50;26.13;;;-1.00;99.90;;;;;;5001347;28;19944;-72
2022/12/09 02:44:32;;;;;;;54.60;26.40;;;-1.30;99.90;;;;;;5034804;28;20069;-71
2022/12/09 02:46:58;;;;;;;50.20;26.73;;;-1.30;99.90;;;;;;5034884;28;20442;-72
2022/12/09 02:49:25;;;;;;;44.70;24.88;;;-1.30;99.90;;;;;;5034873;28;20038;-73
2022/12/09 02:51:52;;;;;;;49.15;25.50;;;-1.30;99.90;;;;;;5034960;28;20041;-72
2022/12/09 02:54:19;;;;;;;47.30;26.02;;;-1.30;99.90;;;;;;5000388;28;20053;-72
2022/12/09 02:56:51;;;;;;;42.42;23.92;;;-1.40;99.90;;;;;;5034617;28;20118;-73
2022/12/09 02:59:17;;;;;;;47.47;26.08;;;-1.40;99.90;;;;;;5034915;28;20478;-72
2022/12/09 03:02:13;;;;;;;49.58;27.13;;;-0.10;99.90;;;;;;5034570;28;20073;-73
2022/12/09 03:04:43;;;;;;;50.78;26.00;;;-1.40;99.90;;;;;;5034348;28;20088;-72
2022/12/09 03:07:20;;;;;;;55.28;27.83;;;-1.30;99.90;;;;;;5017068;28;20038;-72
2022/12/09 03:09:55;;;;;;;52.05;27.15;;;-1.30;99.90;;;;;;5017856;28;20413;-72
2022/12/09 03:12:23;;;;;;;48.72;27.50;;;-1.30;99.90;;;;;;5017102;28;20073;-72
2022/12/09 03:14:53;;;;;;;48.83;27.02;;;-1.30;99.90;;;;;;5034666;28;20041;-72
2022/12/09 03:17:24;;;;;;;55.75;26.60;;;-1.30;99.90;;;;;;5035797;28;20068;-72
2022/12/09 03:19:57;;;;;;;49.65;26.55;;;-1.30;99.90;;;;;;5037896;28;20092;-71
2022/12/09 03:22:27;;;;;;;50.33;26.08;;;-1.30;99.90;;;;;;5004344;28;20118;-72
2022/12/09 03:25:04;;;;;;;48.67;27.02;;;-1.30;99.90;;;;;;5038178;28;20076;-73
2022/12/09 03:27:38;;;;;;;48.33;25.60;;;-1.30;99.90;;;;;;5038415;28;20346;-71
2022/12/09 03:30:06;;;;;;;49.47;26.52;;;-1.30;99.90;;;;;;5038327;28;20037;-72
2022/12/09 03:32:33;;;;;;;49.08;26.88;;;-1.30;99.90;;;;;;5020613;28;20121;-71
2022/12/09 03:35:08;;;;;;;52.83;29.05;;;-1.30;99.90;;;;;;5037275;28;20045;-72
2022/12/09 03:37:37;;;;;;;45.25;25.80;;;-1.40;99.90;;;;;;5038493;28;20075;-71
2022/12/09 03:40:06;;;;;;;57.60;29.80;;;-1.40;99.90;;;;;;5020605;28;20045;-72
2022/12/09 03:42:40;;;;;;;50.28;27.27;;;-1.50;99.90;;;;;;5004257;28;20446;-72
2022/12/09 03:45:10;;;;;;;51.25;27.33;;;-1.50;99.90;;;;;;5020054;28;20110;-73
2022/12/09 03:47:36;;;;;;;51.20;27.85;;;-1.60;99.90;;;;;;5037776;28;20033;-72
2022/12/09 03:50:02;;;;;;;51.80;27.33;;;-1.60;99.90;;;;;;5037608;28;20037;-72
2022/12/09 03:52:44;;;;;;;48.67;26.65;;;-1.60;99.90;;;;;;5020151;28;20450;-72
2022/12/09 03:55:40;;;;;;;46.88;27.15;;;-1.60;99.90;;;;;;5037778;28;20454;-72
2022/12/09 03:58:07;;;;;;;50.65;28.63;;;-1.70;99.90;;;;;;5038157;28;20049;-72
2022/12/09 04:00:36;;;;;;;54.25;28.45;;;-1.70;99.90;;;;;;5037668;28;20056;-72
2022/12/09 04:03:03;;;;;;;56.47;28.08;;;-1.70;99.90;;;;;;5019897;28;20030;-72
2022/12/09 04:05:28;;;;;;;57.30;29.75;;;-1.10;99.90;;;;;;5037600;28;20042;-73
2022/12/09 04:07:54;;;;;;;56.15;29.42;;;-1.80;99.90;;;;;;5037512;28;20353;-72
2022/12/09 04:10:19;;;;;;;54.75;28.42;;;-1.90;99.90;;;;;;5037470;28;20040;-72
2022/12/09 04:12:47;;;;;;;49.70;27.17;;;-1.90;99.90;;;;;;5020261;28;20342;-72
2022/12/09 04:15:13;;;;;;;53.05;27.70;;;-2.00;99.90;;;;;;5037420;28;20048;-72
2022/12/09 04:17:39;;;;;;;55.65;28.38;;;-2.00;99.90;;;;;;5019682;28;20362;-72
2022/12/09 04:20:05;;;;;;;59.60;28.83;;;-2.00;99.90;;;;;;5037297;28;20037;-71
2022/12/09 04:22:31;;;;;;;46.92;28.67;;;-2.00;99.90;;;;;;5019871;28;20080;-72
2022/12/09 04:24:56;;;;;;;52.78;28.08;;;-2.00;99.90;;;;;;5037133;28;20077;-72
2022/12/09 04:27:22;;;;;;;64.97;31.45;;;-2.10;99.90;;;;;;5037170;28;20095;-72
2022/12/09 04:29:48;;;;;;;66.78;31.60;;;-2.10;99.90;;;;;;5036981;28;20087;-72
2022/12/09 04:32:13;;;;;;;63.25;30.52;;;-1.30;99.90;;;;;;5037155;28;20437;-72
2022/12/09 04:34:39;;;;;;;56.95;29.23;;;-2.10;99.90;;;;;;5019784;28;20056;-72
2022/12/09 04:37:04;;;;;;;63.50;30.73;;;-2.20;99.90;;;;;;5037092;28;20041;-72
2022/12/09 04:39:30;;;;;;;57.95;31.15;;;-2.20;99.90;;;;;;5036659;28;20042;-72
2022/12/09 04:41:56;;;;;;;57.60;29.73;;;-2.20;99.90;;;;;;5019222;28;20041;-72
2022/12/09 04:44:22;;;;;;;54.08;29.70;;;-2.20;99.90;;;;;;5036778;28;20055;-72
2022/12/09 04:46:47;;;;;;;56.40;30.17;;;-2.20;99.90;;;;;;5036719;28;20045;-72
2022/12/09 04:49:13;;;;;;;56.83;30.40;;;-2.20;99.90;;;;;;5036591;28;20033;-71
2022/12/09 04:51:38;;;;;;;52.92;30.25;;;-2.20;99.90;;;;;;5036819;28;20102;-71
2022/12/09 04:54:07;;;;;;;61.58;32.45;;;-2.30;99.90;;;;;;5037019;28;20037;-72
2022/12/09 04:56:33;;;;;;;55.72;30.15;;;-2.30;99.90;;;;;;5036193;28;20087;-72
2022/12/09 04:58:58;;;;;;;60.42;31.85;;;-2.30;99.90;;;;;;5039726;28;20433;-71
2022/12/09 05:01:24;;;;;;;53.72;30.25;;;-2.30;99.90;;;;;;5019554;28;20107;-72
2022/12/09 05:03:51;;;;;;;54.17;30.15;;;-2.30;99.90;;;;;;5036480;28;20091;-73
2022/12/09 05:06:21;;;;;;;55.88;30.92;;;-2.30;99.90;;;;;;5036709;28;20085;-71
2022/12/09 05:08:49;;;;;;;67.05;31.48;;;-2.30;99.90;;;;;;5018778;28;20465;-71
2022/12/09 05:11:17;;;;;;;58.78;32.28;;;-3.10;99.90;;;;;;5018868;28;20120;-70
2022/12/09 05:13:42;;;;;;;57.97;31.08;;;-2.40;99.90;;;;;;5018626;28;20053;-70
2022/12/09 05:16:11;;;;;;;56.05;29.67;;;-2.40;99.90;;;;;;5036314;28;20095;-70
2022/12/09 05:18:37;;;;;;;58.85;31.92;;;-2.40;99.90;;;;;;5018536;28;20049;-71
2022/12/09 05:21:11;;;;;;;62.17;31.42;;;-2.40;99.90;;;;;;5036150;28;20112;-71
2022/12/09 05:23:37;;;;;;;56.63;30.27;;;-2.50;99.90;;;;;;5035880;28;20045;-71
2022/12/09 05:26:08;;;;;;;53.20;30.52;;;-2.50;99.90;;;;;;5035977;28;20111;-71
2022/12/09 05:28:34;;;;;;;53.15;30.25;;;-2.50;99.90;;;;;;5036101;28;20055;-71
2022/12/09 05:31:05;;;;;;;63.67;33.58;;;-2.50;99.90;;;;;;5018530;28;20116;-71
2022/12/09 05:33:32;;;;;;;61.10;30.85;;;-2.50;99.90;;;;;;5035836;28;20106;-71
2022/12/09 05:35:58;;;;;;;56.50;30.80;;;-2.50;99.90;;;;;;5035315;28;20108;-72
2022/12/09 05:38:26;;;;;;;74.43;33.90;;;-2.60;99.90;;;;;;5035588;28;20044;-71
2022/12/09 05:40:52;;;;;;;58.50;31.88;;;-2.50;99.90;;;;;;5035173;28;20163;-71
2022/12/09 05:43:18;;;;;;;73.78;35.58;;;-2.60;99.90;;;;;;5035954;28;20106;-71
2022/12/09 05:45:44;;;;;;;69.18;32.17;;;-2.60;99.90;;;;;;5035096;28;20057;-72
2022/12/09 05:48:10;;;;;;;60.47;32.40;;;-2.60;99.90;;;;;;5035157;28;20045;-71
2022/12/09 05:50:36;;;;;;;60.15;31.63;;;-2.60;99.90;;;;;;5035283;28;20450;-72
2022/12/09 05:53:02;;;;;;;56.75;31.20;;;-2.60;99.90;;;;;;5035902;28;20052;-71
2022/12/09 05:55:27;;;;;;;63.72;34.25;;;-2.60;99.90;;;;;;5035345;28;20038;-71
2022/12/09 05:57:53;;;;;;;56.35;31.65;;;-2.60;99.90;;;;;;5035499;28;20064;-71
2022/12/09 06:00:21;;;;;;;54.33;30.70;;;-2.70;99.90;;;;;;5035312;28;20454;-72
2022/12/09 06:02:49;;;;;;;53.80;30.88;;;-2.70;99.90;;;;;;5017855;28;20039;-71
2022/12/09 06:05:15;;;;;;;77.53;37.00;;;-3.50;99.90;;;;;;5035192;28;20128;-71
2022/12/09 06:07:40;;;;;;;65.63;32.65;;;-2.70;99.90;;;;;;5035207;28;20121;-71
2022/12/09 06:10:06;;;;;;;56.05;31.92;;;-2.70;99.90;;;;;;5035209;28;20061;-72
2022/12/09 06:12:32;;;;;;;63.60;32.25;;;-2.70;99.90;;;;;;5035568;28;20080;-72
2022/12/09 06:14:57;;;;;;;59.42;32.63;;;-2.00;99.90;;;;;;5035242;28;20442;-72
2022/12/09 06:17:26;;;;;;;63.15;34.53;;;-2.70;99.90;;;;;;5034819;28;20094;-71
2022/12/09 06:19:52;;;;;;;55.53;31.10;;;-2.70;99.90;;;;;;5017848;28;20453;-72
2022/12/09 06:22:17;;;;;;;72.90;35.35;;;-2.70;99.90;;;;;;5035143;28;20036;-72
2022/12/09 06:24:43;;;;;;;77.30;39.50;;;-2.70;99.90;;;;;;5001755;28;20588;-72
2022/12/09 06:27:08;;;;;;;66.38;36.05;;;-2.70;99.90;;;;;;5035278;28;20433;-72
2022/12/09 06:29:37;;;;;;;58.15;35.40;;;-2.80;99.90;;;;;;5034475;28;20132;-72
2022/12/09 06:32:03;;;;;;;79.32;42.15;;;-2.80;99.90;;;;;;5034678;28;20053;-71
2022/12/09 06:34:29;;;;;;;71.32;40.17;;;-2.80;99.90;;;;;;5034773;28;20041;-73
2022/12/09 06:36:55;;;;;;;77.32;40.50;;;-2.80;99.90;;;;;;5035082;28;20056;-72
2022/12/09 06:39:26;;;;;;;80.45;41.97;;;-2.80;99.90;;;;;;5037382;28;20053;-71
2022/12/09 06:41:52;;;;;;;70.35;37.92;;;-2.80;99.90;;;;;;5009578;28;20050;-72
2022/12/09 06:44:17;;;;;;;76.55;38.40;;;-2.80;99.90;;;;;;5034762;28;20052;-71
2022/12/09 06:46:43;;;;;;;71.63;36.80;;;-2.80;99.90;;;;;;5017390;28;20049;-72
2022/12/09 06:49:09;;;;;;;76.78;38.45;;;-2.90;99.90;;;;;;5001030;28;20496;-72
2022/12/09 06:51:37;;;;;;;73.90;37.20;;;-2.90;99.90;;;;;;5034876;28;20060;-71
2022/12/09 06:54:03;;;;;;;81.50;38.95;;;-2.90;99.90;;;;;;5039137;28;20057;-71
2022/12/09 06:56:31;;;;;;;79.97;39.05;;;-2.80;99.90;;;;;;5038547;28;20079;-71
2022/12/09 06:58:56;;;;;;;76.43;38.83;;;-2.80;99.90;;;;;;5039034;28;20064;-72
2022/12/09 07:01:25;;;;;;;79.53;37.85;;;-2.80;99.90;;;;;;5038663;28;20046;-72
2022/12/09 07:03:54;;;;;;;73.28;37.97;;;-2.80;99.90;;;;;;5038513;28;20056;-72
2022/12/09 07:06:29;;;;;;;80.95;38.47;;;-2.80;99.90;;;;;;5038611;28;20041;-72
2022/12/09 07:08:56;;;;;;;69.78;37.28;;;-2.80;99.90;;;;;;5021103;28;20055;-72
2022/12/09 07:11:22;;;;;;;71.00;35.17;;;-2.80;99.90;;;;;;5020314;28;20037;-72
2022/12/09 07:13:48;;;;;;;86.22;38.38;;;-2.80;99.90;;;;;;5021050;28;20040;-72
2022/12/09 07:16:13;;;;;;;78.13;37.65;;;-2.80;99.90;;;;;;5038191;28;20104;-72
2022/12/09 07:18:39;;;;;;;79.22;38.00;;;-2.80;99.90;;;;;;5038283;28;20438;-71
2022/12/09 07:21:16;;;;;;;72.82;37.90;;;-2.80;99.90;;;;;;5038319;28;20389;-72
2022/12/09 07:23:43;;;;;;;78.25;37.63;;;-2.90;99.90;;;;;;5038425;28;20132;-72
2022/12/09 07:26:09;;;;;;;67.28;35.08;;;-2.80;99.90;;;;;;5037995;28;20073;-70
2022/12/09 07:28:36;;;;;;;95.43;41.70;;;-2.90;99.90;;;;;;5037739;28;20138;-69
2022/12/09 07:31:02;;;;;;;75.82;38.38;;;-2.90;99.90;;;;;;5004611;28;20061;-73
2022/12/09 07:33:28;;;;;;;76.32;36.85;;;-2.90;99.90;;;;;;5037854;28;20480;-72
2022/12/09 07:35:55;;;;;;;79.70;37.03;;;-2.90;99.90;;;;;;5038113;28;20041;-72
2022/12/09 07:38:22;;;;;;;93.85;42.85;;;-2.80;99.90;;;;;;5037538;28;20038;-72
2022/12/09 07:40:48;;;;;;;78.97;38.25;;;-2.80;99.90;;;;;;5037991;28;20055;-72
2022/12/09 07:43:14;;;;;;;87.95;42.65;;;-2.80;99.90;;;;;;5037429;28;20124;-72
2022/12/09 07:45:39;;;;;;;74.32;39.47;;;-2.80;99.90;;;;;;5019850;28;20075;-73
2022/12/09 07:48:07;;;;;;;87.28;41.47;;;-2.80;99.90;;;;;;5037647;28;20042;-72
2022/12/09 07:50:33;;;;;;;80.93;39.63;;;-2.80;99.90;;;;;;5037767;28;20073;-71
2022/12/09 07:52:58;;;;;;;81.18;39.35;;;-2.80;99.90;;;;;;5037874;28;20091;-73
2022/12/09 07:55:24;;;;;;;82.63;41.35;;;-2.80;99.90;;;;;;5037724;28;20129;-72
2022/12/09 07:57:52;;;;;;;89.25;39.95;;;-2.80;99.90;;;;;;5019476;28;20080;-72
2022/12/09 08:00:18;;;;;;;83.38;39.40;;;-2.70;99.90;;;;;;5037150;28;20088;-72
2022/12/09 08:02:44;;;;;;;86.43;40.47;;;-2.70;99.90;;;;;;5036867;28;20457;-72
2022/12/09 08:05:10;;;;;;;91.70;42.28;;;-2.70;99.90;;;;;;5037623;28;20147;-72
2022/12/09 08:07:36;;;;;;;91.68;43.10;;;-3.80;99.90;;;;;;5037700;28;20045;-73
2022/12/09 08:10:01;;;;;;;95.07;43.70;;;-2.70;99.90;;;;;;5037417;28;20052;-72
2022/12/09 08:12:27;;;;;;;94.93;43.08;;;-2.70;99.90;;;;;;5037367;28;20357;-72
2022/12/09 08:14:52;;;;;;;92.30;41.67;;;-2.70;99.90;;;;;;5037327;28;20040;-72
2022/12/09 08:17:18;;;;;;;86.63;42.60;;;-2.60;99.90;;;;;;5037243;28;20034;-72
2022/12/09 08:19:43;;;;;;;79.88;39.80;;;-2.60;99.90;;;;;;5037332;28;20120;-72
2022/12/09 08:22:09;;;;;;;96.25;43.58;;;-2.60;99.90;;;;;;5037196;28;20034;-72
2022/12/09 08:24:35;;;;;;;91.95;43.53;;;-2.60;99.90;;;;;;5036954;28;20041;-72
2022/12/09 08:27:00;;;;;;;94.00;43.85;;;-2.60;99.90;;;;;;5018708;28;20068;-72
2022/12/09 08:29:26;;;;;;;95.35;44.72;;;-2.50;99.90;;;;;;5036756;28;20412;-72
2022/12/09 08:31:52;;;;;;;95.03;44.22;;;-2.50;99.90;;;;;;5037118;28;20111;-72
2022/12/09 08:34:18;;;;;;;95.80;43.35;;;-2.50;99.90;;;;;;5037079;28;20357;-72
2022/12/09 08:36:43;;;;;;;88.80;43.25;;;-2.50;99.90;;;;;;5037666;28;20056;-72
2022/12/09 08:39:10;;;;;;;93.07;43.70;;;-2.40;99.90;;;;;;5036886;28;20454;-72
2022/12/09 08:41:37;;;;;;;97.53;43.97;;;-2.40;99.90;;;;;;5036955;28;20079;-72
2022/12/09 08:44:11;;;;;;;103.03;44.67;;;-2.40;99.90;;;;;;5036411;28;20090;-72
2022/12/09 08:46:39;;;;;;;89.35;42.97;;;-2.40;99.90;;;;;;5036761;28;20037;-72
2022/12/09 08:49:08;;;;;;;93.20;44.03;;;-2.30;99.90;;;;;;5036242;28;20106;-72
2022/12/09 08:51:34;;;;;;;107.25;47.58;;;-2.30;99.90;;;;;;5036698;28;20041;-73
2022/12/09 08:54:00;;;;;;;98.88;45.97;;;-2.20;99.90;;;;;;5036625;28;20042;-70
2022/12/09 08:56:26;;;;;;;100.68;46.28;;;-2.20;99.90;;;;;;5018779;28;20053;-73
2022/12/09 08:58:52;;;;;;;96.85;47.42;;;-2.10;99.90;;;;;;5035965;28;20045;-72
2022/12/09 09:01:21;;;;;;;113.05;47.17;;;-2.10;99.90;;;;;;5035458;28;20095;-73
2022/12/09 09:03:47;;;;;;;120.88;50.50;;;-2.00;99.90;;;;;;5036117;28;20056;-72
2022/12/09 09:06:14;;;;;;;119.65;51.53;;;-1.90;99.90;;;;;;5036353;28;20037;-73
2022/12/09 09:08:40;;;;;;;144.15;56.67;;;-1.80;99.90;;;;;;5036118;28;20077;-72
2022/12/09 09:11:11;;;;;;;143.10;53.65;;;-1.70;99.90;;;;;;5036303;28;20355;-72
2022/12/09 09:13:39;;;;;;;180.77;63.30;;;-1.60;99.90;;;;;;5036791;28;20052;-72
2022/12/09 09:16:09;;;;;;;191.68;64.72;;;-1.50;99.90;;;;;;5017824;28;20362;-72
2022/12/09 09:18:35;;;;;;;159.32;59.83;;;-1.40;99.90;;;;;;5035299;28;20080;-70
2022/12/09 09:21:00;;;;;;;184.43;62.80;;;-1.30;99.90;;;;;;5018527;28;20041;-72
2022/12/09 09:23:26;;;;;;;230.30;70.32;;;-1.10;99.90;;;;;;5035947;28;20445;-72
2022/12/09 09:26:26;;;;;;;163.05;60.85;;;-1.10;99.90;;;;;;5035938;28;20042;-72
2022/12/09 09:28:53;;;;;;;175.00;63.10;;;-1.00;99.90;;;;;;4993222;28;20465;-69
2022/12/09 09:31:21;;;;;;;225.07;71.38;;;-0.90;99.90;;;;;;5035781;28;20044;-72
2022/12/09 09:33:49;;;;;;;186.70;63.03;;;-0.90;99.90;;;;;;5018307;28;20385;-72
2022/12/09 09:36:21;;;;;;;180.55;61.53;;;-0.90;99.90;;;;;;5035799;28;20116;-72
2022/12/09 09:38:53;;;;;;;187.40;63.88;;;-0.80;99.90;;;;;;5001929;28;20442;-72
2022/12/09 09:41:25;;;;;;;210.48;68.43;;;-0.70;99.90;;;;;;5035893;28;20048;-72
2022/12/09 09:43:52;;;;;;;247.35;71.70;;;-0.50;99.90;;;;;;5035865;28;20038;-70
2022/12/09 09:46:41;;;;;;;287.77;76.72;;;-0.40;99.90;;;;;;5017444;28;20042;-69
2022/12/09 09:49:16;;;;;;;239.88;70.85;;;-0.30;99.90;;;;;;5035595;28;20041;-70
2022/12/09 09:51:42;;;;;;;229.48;68.70;;;-0.20;99.90;;;;;;5035439;28;20111;-70
2022/12/09 09:54:12;;;;;;;223.57;67.28;;;-0.10;99.90;;;;;;5035718;28;20458;-70
2022/12/09 09:56:50;;;;;;;201.13;63.38;;;0.00;99.90;;;;;;5034920;28;20037;-71
2022/12/09 09:59:21;;;;;;;160.85;56.67;;;0.00;99.90;;;;;;5017546;28;20057;-72
2022/12/09 10:02:01;;;;;;;280.48;67.88;;;0.10;99.90;;;;;;5035180;28;20087;-71
2022/12/09 10:04:45;;;;;;;252.55;68.00;;;0.10;99.90;;;;;;5017649;28;20064;-70
2022/12/09 10:07:18;;;;;;;589.05;87.70;;;0.20;99.90;;;;;;5017510;28;20041;-70
2022/12/09 10:09:50;;;;;;;275.80;66.68;;;0.30;99.90;;;;;;5035523;28;20041;-71
2022/12/09 10:12:55;;;;;;;440.80;82.97;;;0.30;99.90;;;;;;5035162;28;20037;-71
2022/12/09 10:16:03;;;;;;;381.90;74.05;;;0.30;99.90;;;;;;5017483;28;20092;-71
2022/12/09 10:18:40;;;;;;;263.75;66.43;;;0.60;99.90;;;;;;5035155;28;20120;-71
2022/12/09 10:21:20;;;;;;;338.75;70.43;;;0.40;99.90;;;;;;5034881;28;20045;-72
2022/12/09 10:23:47;;;;;;;257.45;61.83;;;0.50;99.90;;;;;;5034959;28;20120;-71
2022/12/09 10:26:25;;;;;;;334.10;67.70;;;0.50;99.90;;;;;;5034941;28;20037;-71
2022/12/09 10:29:00;;;;;;;249.65;61.15;;;0.50;99.90;;;;;;5034947;28;20057;-71
2022/12/09 10:31:27;;;;;;;214.25;58.58;;;0.50;99.90;;;;;;5034978;28;20037;-72
2022/12/09 10:33:52;;;;;;;394.35;74.57;;;0.60;99.90;;;;;;5034822;28;20042;-72
2022/12/09 10:36:30;;;;;;;452.90;75.65;;;1.00;99.90;;;;;;5034262;28;20055;-72
2022/12/09 10:38:57;;;;;;;236.07;58.47;;;0.60;99.90;;;;;;5034769;28;20091;-71
2022/12/09 10:44:27;;;;;;;;;;;0.60;99.90;;;;;;5035558;28;20442;-71
2022/12/09 10:47:02;;;;;;;368.27;72.75;;;0.60;99.90;;;;;;5034685;28;19921;-71
2022/12/09 10:49:29;;;;;;;204.95;57.80;;;0.60;99.90;;;;;;5034824;28;20095;-72
2022/12/09 10:51:56;;;;;;;196.45;56.85;;;0.60;99.90;;;;;;5034171;28;20107;-72
2022/12/09 10:54:28;;;;;;;185.63;57.40;;;0.70;99.90;;;;;;5017429;28;20049;-72
2022/12/09 10:57:27;;;;;;;208.43;59.00;;;0.70;99.90;;;;;;5034443;28;20140;-72
2022/12/09 11:00:05;;;;;;;237.38;61.03;;;0.70;99.90;;;;;;5017055;28;20504;-72
2022/12/09 11:02:32;;;;;;;280.70;66.05;;;0.80;99.90;;;;;;5034312;28;20044;-72
2022/12/09 11:05:28;;;;;;;194.27;58.45;;;0.80;99.90;;;;;;5034658;28;20065;-72
2022/12/09 11:07:56;;;;;;;184.10;57.83;;;0.80;99.90;;;;;;4998799;28;20057;-73
2022/12/09 11:10:27;;;;;;;315.33;66.80;;;0.90;99.90;;;;;;4997255;28;20042;-73
2022/12/09 11:12:59;;;;;;;164.98;56.17;;;0.90;99.90;;;;;;5014913;28;20046;-74
2022/12/09 11:15:31;;;;;;;372.85;76.82;;;0.90;99.90;;;;;;4997807;28;20315;-74
2022/12/09 11:18:04;;;;;;;283.60;69.47;;;0.90;99.90;;;;;;5014576;28;20050;-72
2022/12/09 11:20:31;;;;;;;;;;;1.00;99.90;;;;;;5020280;28;20130;-73
2022/12/09 11:23:01;;;;;;;449.95;81.65;;;1.00;99.90;;;;;;5034303;28;20016;-73
2022/12/09 11:25:30;;;;;;;363.38;74.03;;;1.00;99.90;;;;;;5034646;28;20330;-72
2022/12/09 11:27:55;;;;;;;334.73;69.45;;;1.00;99.90;;;;;;5034759;28;20060;-73
2022/12/09 11:30:55;;;;;;;367.05;73.05;;;1.30;99.90;;;;;;5017065;28;20042;-73
2022/12/09 11:33:25;;;;;;;258.90;62.78;;;1.00;99.90;;;;;;5029601;28;20057;-74
2022/12/09 11:36:05;;;;;;;216.50;60.53;;;1.00;99.90;;;;;;5000295;28;20096;-73
2022/12/09 11:38:43;;;;;;;145.25;52.60;;;1.00;99.90;;;;;;5035835;28;20072;-72
2022/12/09 11:41:11;;;;;;;119.68;48.70;;;1.10;99.90;;;;;;5037953;28;20037;-73
2022/12/09 11:43:39;;;;;;;125.30;51.17;;;1.10;99.90;;;;;;5037970;28;20112;-73
2022/12/09 11:46:11;;;;;;;291.92;67.13;;;1.10;99.90;;;;;;5037784;28;20033;-73
2022/12/09 11:48:58;;;;;;;235.20;60.60;;;1.20;99.90;;;;;;5037997;28;20045;-74
2022/12/09 11:51:36;;;;;;;162.95;54.63;;;1.20;99.90;;;;;;5037611;28;20045;-74
2022/12/09 11:54:17;;;;;;;131.75;50.88;;;1.20;99.90;;;;;;5037821;28;20052;-73
2022/12/09 11:56:43;;;;;;;191.85;57.83;;;1.20;99.90;;;;;;5037525;28;20096;-74
2022/12/09 11:59:28;;;;;;;143.23;52.38;;;1.20;99.90;;;;;;5020169;28;20142;-75
2022/12/09 12:01:56;;;;;;;178.05;55.53;;;1.20;99.90;;;;;;5020557;28;20191;-72
2022/12/09 12:04:49;;;;;;;152.88;52.67;;;1.20;99.90;;;;;;5004637;28;20370;-73
2022/12/09 12:07:20;;;;;;;182.05;54.50;;;1.20;99.90;;;;;;5017996;28;20041;-73
2022/12/09 12:09:53;;;;;;;145.05;53.33;;;1.10;99.90;;;;;;5017731;28;20045;-74
2022/12/09 12:12:29;;;;;;;143.13;52.50;;;1.10;99.90;;;;;;5017495;28;20046;-73
2022/12/09 12:15:00;;;;;;;102.90;46.40;;;1.10;99.90;;;;;;5017368;28;20054;-73
2022/12/09 12:17:39;;;;;;;93.03;44.88;;;1.10;99.90;;;;;;5017642;28;20051;-73
2022/12/09 12:20:12;;;;;;;114.45;47.83;;;1.10;99.90;;;;;;5006506;28;20469;-73
2022/12/09 12:22:57;;;;;;;123.40;50.22;;;1.10;99.90;;;;;;5037102;28;20315;-73
2022/12/09 12:25:26;;;;;;;122.78;50.65;;;1.10;99.90;;;;;;5036098;28;20037;-74
2022/12/09 12:28:59;;;;;;;113.88;51.70;;;1.10;99.90;;;;;;5036028;28;20041;-74
2022/12/09 12:31:52;;;;;;;126.70;50.78;;;1.00;99.90;;;;;;4932469;29;20051;-73
2022/12/09 12:34:32;;;;;;;160.05;54.92;;;1.10;99.90;;;;;;4955300;29;20537;-73
2022/12/09 12:37:26;;;;;;;113.28;50.13;;;1.10;99.90;;;;;;5020673;28;20048;-73
2022/12/09 12:40:19;;;;;;;109.78;47.10;;;1.10;99.90;;;;;;5019296;28;20081;-74
2022/12/09 12:46:15;;;;;;;104.68;48.35;;;1.10;99.90;;;;;;4983448;28;20118;-73
2022/12/09 12:49:12;;;;;;;100.50;47.22;;;1.20;99.90;;;;;;5036696;28;20446;-73
2022/12/09 12:52:11;;;;;;;106.60;46.40;;;1.20;99.90;;;;;;5036566;28;20033;-72